createdAt,value
2018-09-24T00:01:50.061Z,1.10
2018-09-24T00:04:17.945Z,1.40
2018-09-24T00:06:45.848Z,0.90
2018-09-24T00:09:15.836Z,1.33
2018-09-24T00:11:43.807Z,1.17
2018-09-24T00:14:11.735Z,1.40
2018-09-24T00:16:39.623Z,1.00
2018-09-24T00:19:07.665Z,0.93
2018-09-24T00:21:35.560Z,1.07
2018-09-24T00:24:07.470Z,1.43
2018-09-24T00:26:35.359Z,1.30
2018-09-24T00:29:03.270Z,1.20
2018-09-24T00:31:33.500Z,1.30
2018-09-24T00:34:01.387Z,1.30
2018-09-24T00:36:29.328Z,1.40
2018-09-24T00:38:57.224Z,1.20
2018-09-24T00:41:29.160Z,1.10
2018-09-24T00:43:57.046Z,1.50
2018-09-24T00:46:24.943Z,1.40
2018-09-24T00:48:52.824Z,1.40
2018-09-24T00:51:21.142Z,1.20
2018-09-24T00:53:49.111Z,1.30
2018-09-24T00:59:04.027Z,1.53
2018-09-24T01:01:33.907Z,1.20
2018-09-24T01:04:01.901Z,1.40
2018-09-24T01:06:30.160Z,1.70
2018-09-24T01:08:58.023Z,1.53
2018-09-24T01:11:25.883Z,1.50
2018-09-24T01:13:53.850Z,1.90
2018-09-24T01:16:21.745Z,1.90
2018-09-24T01:18:49.710Z,1.63
2018-09-24T01:21:17.658Z,1.80
2018-09-24T01:23:45.639Z,1.80
2018-09-24T01:26:13.511Z,2.03
2018-09-24T01:28:41.482Z,1.90
2018-09-24T01:31:09.351Z,2.23
2018-09-24T01:33:37.312Z,1.73
2018-09-24T01:36:05.243Z,2.20
2018-09-24T01:38:33.119Z,2.20
2018-09-24T01:41:01.047Z,1.80
2018-09-24T01:43:28.983Z,2.20
2018-09-24T01:45:56.877Z,2.13
2018-09-24T01:48:24.755Z,3.13
2018-09-24T01:50:52.622Z,2.33
2018-09-24T01:53:20.546Z,1.97
2018-09-24T01:55:48.404Z,2.50
2018-09-24T01:58:16.399Z,2.90
2018-09-24T02:00:44.299Z,2.53
2018-09-24T02:03:12.191Z,3.27
2018-09-24T02:05:40.045Z,2.50
2018-09-24T02:08:08.068Z,3.00
2018-09-24T02:10:36.937Z,2.77
2018-09-24T02:13:04.804Z,3.20
2018-09-24T02:15:33.438Z,3.30
2018-09-24T02:18:01.401Z,3.73
2018-09-24T02:20:29.456Z,3.87
2018-09-24T02:22:57.342Z,3.53
2018-09-24T02:25:25.215Z,3.67
2018-09-24T02:27:53.108Z,3.70
2018-09-24T02:30:20.983Z,3.77
2018-09-24T02:32:48.892Z,4.10
2018-09-24T02:35:16.787Z,3.63
2018-09-24T02:37:46.227Z,4.00
2018-09-24T02:40:16.628Z,3.80
2018-09-24T02:42:44.534Z,3.90
2018-09-24T02:45:12.403Z,4.53
2018-09-24T02:47:40.370Z,3.97
2018-09-24T02:50:08.286Z,4.00
2018-09-24T02:52:36.166Z,4.17
2018-09-24T02:55:08.488Z,4.00
2018-09-24T02:57:36.349Z,4.47
2018-09-24T03:00:04.461Z,3.80
2018-09-24T03:02:32.419Z,4.13
2018-09-24T03:05:00.310Z,4.03
2018-09-24T03:07:28.343Z,4.30
2018-09-24T03:09:56.228Z,4.80
2018-09-24T03:12:24.164Z,4.60
2018-09-24T03:14:52.023Z,4.53
2018-09-24T03:17:20.179Z,4.57
2018-09-24T03:19:48.064Z,4.87
2018-09-24T03:22:17.927Z,4.60
2018-09-24T03:24:45.845Z,5.10
2018-09-24T03:27:13.711Z,5.53
2018-09-24T03:29:41.586Z,5.30
2018-09-24T03:32:09.498Z,5.37
2018-09-24T03:34:39.388Z,5.57
2018-09-24T03:37:07.423Z,4.90
2018-09-24T03:39:35.310Z,5.60
2018-09-24T03:42:03.250Z,5.10
2018-09-24T03:44:31.096Z,5.47
2018-09-24T03:46:58.951Z,5.30
2018-09-24T03:49:26.899Z,5.23
2018-09-24T03:51:58.651Z,5.80
2018-09-24T03:54:26.506Z,5.80
2018-09-24T03:56:54.455Z,6.13
2018-09-24T03:59:22.337Z,5.53
2018-09-24T04:01:50.210Z,6.10
2018-09-24T04:04:23.572Z,6.57
2018-09-24T04:06:56.926Z,6.27
2018-09-24T04:09:30.442Z,5.83
2018-09-24T04:12:03.582Z,6.40
2018-09-24T04:14:36.983Z,6.73
2018-09-24T04:17:10.260Z,6.37
2018-09-24T04:19:43.553Z,6.67
2018-09-24T04:22:16.712Z,6.17
2018-09-24T04:24:50.051Z,6.27
2018-09-24T04:27:23.483Z,7.23
2018-09-24T04:29:56.851Z,6.20
2018-09-24T04:32:30.171Z,6.87
2018-09-24T04:35:03.335Z,6.13
2018-09-24T04:37:36.758Z,6.83
2018-09-24T04:40:10.282Z,6.90
2018-09-24T04:42:43.598Z,6.97
2018-09-24T04:45:16.859Z,6.30
2018-09-24T04:47:50.304Z,6.83
2018-09-24T04:50:23.479Z,7.13
2018-09-24T04:52:56.809Z,6.57
2018-09-24T04:55:30.003Z,6.03
2018-09-24T04:58:03.315Z,6.37
2018-09-24T05:00:36.691Z,6.20
2018-09-24T05:03:09.879Z,6.23
2018-09-24T05:05:43.234Z,6.40
2018-09-24T05:08:16.430Z,5.83
2018-09-24T05:10:49.794Z,6.47
2018-09-24T05:13:23.130Z,6.93
2018-09-24T05:15:56.527Z,6.00
2018-09-24T05:18:30.084Z,7.00
2018-09-24T05:21:03.363Z,6.17
2018-09-24T05:23:36.702Z,5.97
2018-09-24T05:26:09.991Z,6.43
2018-09-24T05:28:43.459Z,6.13
2018-09-24T05:31:16.727Z,6.17
2018-09-24T05:33:50.141Z,7.07
2018-09-24T05:36:23.556Z,6.17
2018-09-24T05:38:56.867Z,6.87
2018-09-24T05:41:30.055Z,8.27
2018-09-24T05:44:03.233Z,6.20
2018-09-24T05:46:36.703Z,5.97
2018-09-24T05:49:10.124Z,5.97
2018-09-24T05:51:44.534Z,6.17
2018-09-24T05:54:17.896Z,6.60
2018-09-24T05:56:51.307Z,5.67
2018-09-24T05:59:24.640Z,5.83
2018-09-24T06:01:57.968Z,6.83
2018-09-24T06:04:31.185Z,6.30
2018-09-24T06:07:04.619Z,5.73
2018-09-24T06:09:38.115Z,5.77
2018-09-24T06:12:11.578Z,5.40
2018-09-24T06:14:45.011Z,4.67
2018-09-24T06:17:18.287Z,5.03
2018-09-24T06:19:51.630Z,5.33
2018-09-24T06:22:24.948Z,4.70
2018-09-24T06:24:58.350Z,4.93
2018-09-24T06:27:31.623Z,4.30
2018-09-24T06:30:05.007Z,4.90
2018-09-24T06:32:38.563Z,4.63
2018-09-24T06:35:11.868Z,4.13
2018-09-24T06:37:45.203Z,4.87
2018-09-24T06:40:18.490Z,4.63
2018-09-24T06:42:52.124Z,3.40
2018-09-24T06:45:25.536Z,4.10
2018-09-24T06:47:58.927Z,4.10
2018-09-24T06:50:32.323Z,3.40
2018-09-24T06:53:05.597Z,3.70
2018-09-24T06:55:38.893Z,3.60
2018-09-24T07:00:58.868Z,4.00
2018-09-24T07:03:32.130Z,3.97
2018-09-24T07:06:05.427Z,3.70
2018-09-24T07:08:38.893Z,3.97
2018-09-24T07:11:12.421Z,3.90
2018-09-24T07:13:46.447Z,4.13
2018-09-24T07:16:19.908Z,3.43
2018-09-24T07:18:53.415Z,4.00
2018-09-24T07:21:26.713Z,3.17
2018-09-24T07:23:59.959Z,3.30
2018-09-24T07:26:33.222Z,3.20
2018-09-24T07:29:06.603Z,2.97
2018-09-24T07:31:40.011Z,2.90
2018-09-24T07:34:13.281Z,2.97
2018-09-24T07:36:46.611Z,2.93
2018-09-24T07:39:19.895Z,3.00
2018-09-24T07:41:53.279Z,2.53
2018-09-24T07:44:26.965Z,2.87
2018-09-24T07:47:00.398Z,2.50
2018-09-24T07:49:33.623Z,2.77
2018-09-24T07:52:06.955Z,2.97
2018-09-24T07:54:40.635Z,2.80
2018-09-24T07:57:13.974Z,2.70
2018-09-24T07:59:47.398Z,2.60
2018-09-24T08:02:20.752Z,2.57
2018-09-24T08:04:54.010Z,2.60
2018-09-24T08:07:27.511Z,2.13
2018-09-24T08:10:00.982Z,2.10
2018-09-24T08:12:34.410Z,2.43
2018-09-24T08:15:07.632Z,2.10
2018-09-24T08:17:41.192Z,1.93
2018-09-24T08:20:14.700Z,2.17
2018-09-24T08:22:48.262Z,2.27
2018-09-24T08:25:21.579Z,2.13
2018-09-24T08:27:55.111Z,8.43
2018-09-24T08:30:28.367Z,2.30
2018-09-24T08:33:01.779Z,1.60
2018-09-24T08:35:35.299Z,1.80
2018-09-24T08:38:08.700Z,1.67
2018-09-24T08:40:42.362Z,2.23
2018-09-24T08:43:15.842Z,1.83
2018-09-24T08:45:49.297Z,1.40
2018-09-24T08:48:22.634Z,1.70
2018-09-24T08:50:56.031Z,1.70
2018-09-24T08:53:29.520Z,1.37
2018-09-24T08:56:02.935Z,1.87
2018-09-24T08:58:36.267Z,1.33
2018-09-24T09:01:09.762Z,2.00
2018-09-24T09:03:43.255Z,1.70
2018-09-24T09:06:16.620Z,1.80
2018-09-24T09:08:50.002Z,1.60
2018-09-24T09:11:23.434Z,1.80
2018-09-24T09:13:57.279Z,1.40
2018-09-24T09:16:30.728Z,2.00
2018-09-24T09:19:03.922Z,1.50
2018-09-24T09:21:37.332Z,1.50
2018-09-24T09:24:10.624Z,1.70
2018-09-24T09:26:43.972Z,2.00
2018-09-24T09:29:17.399Z,1.83
2018-09-24T09:31:50.759Z,1.30
2018-09-24T09:34:24.064Z,1.27
2018-09-24T09:36:57.327Z,1.30
2018-09-24T09:39:30.608Z,1.70
2018-09-24T09:42:03.888Z,1.53
2018-09-24T09:44:38.022Z,1.33
2018-09-24T09:47:11.399Z,1.97
2018-09-24T09:49:44.695Z,1.73
2018-09-24T09:52:18.002Z,1.77
2018-09-24T09:54:51.407Z,1.30
2018-09-24T09:57:24.748Z,1.13
2018-09-24T09:59:58.159Z,1.70
2018-09-24T10:02:31.471Z,1.50
2018-09-24T10:05:04.759Z,1.13
2018-09-24T10:07:38.084Z,1.00
2018-09-24T10:10:11.567Z,1.60
2018-09-24T10:12:44.715Z,0.80
2018-09-24T10:15:18.255Z,1.17
2018-09-24T10:17:51.710Z,0.93
2018-09-24T10:20:25.148Z,1.20
2018-09-24T10:22:58.558Z,0.80
2018-09-24T10:25:31.723Z,1.00
2018-09-24T10:28:04.997Z,1.03
2018-09-24T10:30:38.383Z,1.00
2018-09-24T10:33:11.639Z,0.90
2018-09-24T10:35:44.914Z,0.97
2018-09-24T10:38:18.222Z,1.57
2018-09-24T10:40:51.500Z,1.47
2018-09-24T10:43:24.763Z,0.90
2018-09-24T10:45:58.177Z,1.13
2018-09-24T10:48:31.556Z,1.00
2018-09-24T10:51:04.734Z,1.27
2018-09-24T10:53:38.168Z,1.37
2018-09-24T10:56:11.410Z,0.90
2018-09-24T10:58:44.706Z,0.87
2018-09-24T11:01:18.079Z,0.80
2018-09-24T11:03:51.469Z,0.87
2018-09-24T11:06:24.742Z,0.90
2018-09-24T11:08:58.140Z,0.90
2018-09-24T11:11:31.311Z,0.80
2018-09-24T11:14:05.691Z,0.90
2018-09-24T11:16:39.390Z,1.20
2018-09-24T11:19:12.401Z,1.10
2018-09-24T11:21:46.248Z,1.10
2018-09-24T11:24:19.526Z,1.03
2018-09-24T11:26:52.962Z,1.00
2018-09-24T11:29:26.330Z,0.80
2018-09-24T11:31:59.690Z,0.70
2018-09-24T11:34:32.969Z,1.10
2018-09-24T11:37:06.255Z,0.70
2018-09-24T11:39:39.516Z,0.60
2018-09-24T11:42:18.458Z,1.03
2018-09-24T11:44:51.883Z,1.10
2018-09-24T11:47:25.167Z,0.70
2018-09-24T11:49:58.594Z,0.70
2018-09-24T11:52:32.497Z,1.10
2018-09-24T11:55:05.818Z,1.13
2018-09-24T11:57:39.207Z,1.00
2018-09-24T12:00:12.596Z,0.90
2018-09-24T12:02:45.867Z,1.43
2018-09-24T12:05:19.215Z,1.10
2018-09-24T12:07:52.626Z,0.80
2018-09-24T12:10:25.942Z,0.93
2018-09-24T12:12:59.331Z,1.13
2018-09-24T12:15:32.582Z,0.73
2018-09-24T12:18:05.895Z,0.70
2018-09-24T12:20:39.150Z,0.73
2018-09-24T12:23:12.423Z,0.80
2018-09-24T12:25:45.698Z,0.70
2018-09-24T12:28:19.017Z,1.70
2018-09-24T12:30:52.418Z,1.00
2018-09-24T12:33:25.819Z,0.83
2018-09-24T12:35:59.210Z,0.53
2018-09-24T12:38:32.475Z,0.57
2018-09-24T12:41:05.795Z,0.53
2018-09-24T12:43:39.200Z,0.60
2018-09-24T12:46:12.601Z,1.17
2018-09-24T12:48:46.023Z,0.53
2018-09-24T12:51:19.950Z,1.57
2018-09-24T12:53:53.171Z,0.47
2018-09-24T12:56:26.443Z,0.57
2018-09-24T12:58:59.878Z,0.87
2018-09-24T13:01:33.359Z,0.60
2018-09-24T13:04:06.642Z,0.80
2018-09-24T13:06:39.951Z,0.60
2018-09-24T13:09:13.246Z,0.60
2018-09-24T13:11:46.631Z,1.03
2018-09-24T13:14:19.946Z,0.73
2018-09-24T13:16:53.370Z,0.80
2018-09-24T13:19:26.634Z,0.83
2018-09-24T13:21:59.775Z,0.70
2018-09-24T13:24:33.102Z,0.70
2018-09-24T13:27:06.407Z,0.80
2018-09-24T13:29:39.802Z,0.77
2018-09-24T13:32:13.071Z,0.83
2018-09-24T13:34:46.454Z,0.60
2018-09-24T13:37:19.645Z,0.70
2018-09-24T13:39:53.043Z,0.73
2018-09-24T13:42:26.328Z,0.57
2018-09-24T13:44:59.494Z,0.80
2018-09-24T13:47:32.899Z,0.80
2018-09-24T13:50:06.204Z,0.73
2018-09-24T13:52:39.503Z,0.70
2018-09-24T13:55:12.826Z,1.83
2018-09-24T13:57:46.276Z,0.80
2018-09-24T14:00:19.556Z,0.70
2018-09-24T14:02:52.962Z,1.23
2018-09-24T14:05:26.237Z,0.70
2018-09-24T14:07:59.615Z,1.07
2018-09-24T14:10:32.815Z,0.60
2018-09-24T14:13:06.188Z,7.43
2018-09-24T14:15:39.494Z,1.00
2018-09-24T14:18:12.855Z,1.00
2018-09-24T14:20:46.270Z,0.73
2018-09-24T14:23:19.670Z,0.60
2018-09-24T14:25:52.938Z,0.80
2018-09-24T14:28:26.224Z,0.73
2018-09-24T14:30:59.656Z,0.80
2018-09-24T14:33:33.059Z,0.70
2018-09-24T14:36:06.353Z,1.03
2018-09-24T14:38:39.739Z,1.20
2018-09-24T14:41:12.931Z,0.70
2018-09-24T14:43:46.334Z,0.70
2018-09-24T14:46:19.613Z,1.00
2018-09-24T14:48:53.010Z,1.00
2018-09-24T14:51:27.680Z,0.60
2018-09-24T14:54:01.045Z,0.70
2018-09-24T14:56:35.623Z,0.90
2018-09-24T14:59:08.951Z,0.70
2018-09-24T15:01:42.261Z,0.80
2018-09-24T15:04:15.438Z,0.53
2018-09-24T15:06:48.868Z,0.63
2018-09-24T15:09:22.122Z,0.73
2018-09-24T15:11:55.519Z,0.60
2018-09-24T15:14:28.828Z,0.43
2018-09-24T15:17:02.123Z,0.57
2018-09-24T15:19:35.553Z,0.70
2018-09-24T15:22:08.964Z,0.67
2018-09-24T15:24:42.351Z,0.60
2018-09-24T15:27:15.618Z,0.80
2018-09-24T15:29:49.014Z,0.20
2018-09-24T15:32:22.283Z,0.33
2018-09-24T15:34:55.743Z,0.43
2018-09-24T15:37:29.969Z,0.43
2018-09-24T15:40:03.269Z,0.60
2018-09-24T15:42:36.671Z,1.50
2018-09-24T15:45:09.988Z,0.50
2018-09-24T15:47:43.142Z,0.50
2018-09-24T15:50:17.199Z,0.40
2018-09-24T15:52:50.546Z,0.57
2018-09-24T15:55:24.099Z,0.50
2018-09-24T15:57:57.411Z,0.60
2018-09-24T16:00:31.455Z,0.70
2018-09-24T16:03:04.859Z,0.67
2018-09-24T16:05:38.268Z,0.87
2018-09-24T16:08:11.798Z,0.67
2018-09-24T16:10:45.076Z,1.17
2018-09-24T16:13:18.463Z,0.83
2018-09-24T16:15:51.907Z,4.70
2018-09-24T16:18:25.172Z,1.73
2018-09-24T16:20:59.200Z,1.23
2018-09-24T16:23:32.635Z,1.37
2018-09-24T16:26:05.899Z,0.70
2018-09-24T16:28:39.320Z,0.60
2018-09-24T16:31:12.475Z,0.70
2018-09-24T16:33:45.887Z,0.67
2018-09-24T16:36:19.359Z,1.63
2018-09-24T16:38:52.803Z,0.70
2018-09-24T16:41:26.102Z,0.73
2018-09-24T16:43:59.567Z,0.77
2018-09-24T16:46:34.063Z,2.00
2018-09-24T16:49:07.370Z,1.37
2018-09-24T16:51:42.764Z,1.37
2018-09-24T16:54:16.066Z,0.70
2018-09-24T16:56:49.462Z,1.00
2018-09-24T16:59:22.659Z,0.90
2018-09-24T17:01:56.053Z,0.50
2018-09-24T17:04:29.306Z,0.77
2018-09-24T17:07:02.496Z,0.80
2018-09-24T17:09:35.891Z,0.83
2018-09-24T17:12:09.505Z,0.47
2018-09-24T17:14:43.302Z,0.60
2018-09-24T17:17:16.622Z,0.87
2018-09-24T17:19:49.986Z,0.40
2018-09-24T17:22:23.253Z,0.80
2018-09-24T17:24:56.645Z,0.47
2018-09-24T17:27:29.927Z,0.97
2018-09-24T17:30:03.123Z,0.60
2018-09-24T17:32:36.509Z,1.27
2018-09-24T17:35:09.807Z,0.40
2018-09-24T17:37:43.096Z,0.60
2018-09-24T17:40:16.305Z,0.70
2018-09-24T17:42:49.602Z,0.70
2018-09-24T17:45:22.878Z,0.80
2018-09-24T17:47:56.268Z,0.60
2018-09-24T17:50:29.667Z,0.30
2018-09-24T17:53:04.200Z,0.60
2018-09-24T17:55:37.507Z,0.50
2018-09-24T17:58:11.053Z,0.80
2018-09-24T18:00:44.451Z,0.60
2018-09-24T18:03:17.755Z,0.57
2018-09-24T18:05:51.221Z,0.60
2018-09-24T18:08:24.342Z,0.80
2018-09-24T18:10:57.815Z,0.70
2018-09-24T18:13:31.129Z,0.53
2018-09-24T18:16:04.392Z,0.80
2018-09-24T18:18:37.783Z,0.73
2018-09-24T18:21:11.042Z,0.87
2018-09-24T18:23:44.479Z,1.00
2018-09-24T18:26:17.883Z,0.90
2018-09-24T18:28:51.287Z,0.63
2018-09-24T18:31:24.568Z,0.77
2018-09-24T18:33:58.044Z,1.40
2018-09-24T18:36:31.250Z,0.60
2018-09-24T18:39:04.526Z,0.70
2018-09-24T18:41:37.926Z,0.60
2018-09-24T18:44:11.446Z,0.50
2018-09-24T18:46:44.891Z,0.80
2018-09-24T18:49:18.120Z,1.47
2018-09-24T18:51:54.249Z,0.50
2018-09-24T18:54:27.527Z,0.60
2018-09-24T18:57:00.815Z,1.40
2018-09-24T18:59:34.216Z,0.73
2018-09-24T19:02:07.527Z,0.80
2018-09-24T19:04:40.921Z,0.80
2018-09-24T19:07:14.538Z,0.80
2018-09-24T19:09:48.077Z,0.97
2018-09-24T19:12:21.532Z,0.93
2018-09-24T19:14:54.950Z,0.70
2018-09-24T19:17:28.250Z,0.67
2018-09-24T19:20:01.847Z,1.00
2018-09-24T19:22:35.315Z,0.80
2018-09-24T19:25:08.678Z,0.80
2018-09-24T19:27:42.163Z,1.00
2018-09-24T19:30:15.579Z,2.00
2018-09-24T19:32:48.839Z,1.00
2018-09-24T19:35:22.143Z,1.30
2018-09-24T19:37:55.679Z,1.30
2018-09-24T19:40:29.059Z,0.90
2018-09-24T19:43:02.414Z,1.50
2018-09-24T19:45:35.915Z,0.90
2018-09-24T19:48:09.299Z,0.80
2018-09-24T19:50:42.650Z,1.83
2018-09-24T19:53:15.955Z,1.07
2018-09-24T19:55:49.472Z,0.77
2018-09-24T19:58:22.804Z,0.93
2018-09-24T20:00:56.282Z,1.67
2018-09-24T20:03:29.529Z,22.47
2018-09-24T20:06:02.870Z,13.97
2018-09-24T20:08:37.282Z,6.23
2018-09-24T20:11:10.605Z,4.57
2018-09-24T20:13:44.025Z,2.20
2018-09-24T20:16:17.295Z,1.20
2018-09-24T20:18:50.709Z,1.00
2018-09-24T20:21:23.967Z,1.17
2018-09-24T20:23:57.283Z,0.80
2018-09-24T20:26:30.678Z,0.90
2018-09-24T20:29:03.956Z,1.13
2018-09-24T20:31:37.378Z,0.90
2018-09-24T20:34:10.603Z,1.20
2018-09-24T20:36:44.031Z,0.80
2018-09-24T20:39:17.839Z,0.80
2018-09-24T20:41:51.349Z,1.33
2018-09-24T20:44:24.634Z,1.07
2018-09-24T20:46:57.926Z,1.30
2018-09-24T20:49:31.218Z,0.60
2018-09-24T20:52:06.512Z,1.37
2018-09-24T20:54:39.901Z,0.83
2018-09-24T20:57:13.167Z,0.90
2018-09-24T20:59:46.539Z,1.10
2018-09-24T21:02:19.803Z,0.80
2018-09-24T21:04:53.209Z,0.70
2018-09-24T21:07:26.499Z,0.63
2018-09-24T21:09:59.822Z,0.70
2018-09-24T21:12:33.104Z,1.00
2018-09-24T21:15:06.401Z,1.37
2018-09-24T21:17:39.863Z,0.90
2018-09-24T21:20:13.043Z,1.00
2018-09-24T21:22:46.430Z,0.93
2018-09-24T21:25:19.727Z,0.90
2018-09-24T21:27:53.113Z,0.77
2018-09-24T21:30:26.394Z,1.00
2018-09-24T21:32:59.806Z,0.80
2018-09-24T21:35:33.082Z,0.90
2018-09-24T21:38:06.290Z,1.20
2018-09-24T21:40:39.602Z,1.33
2018-09-24T21:43:12.896Z,0.77
2018-09-24T21:45:46.373Z,1.27
2018-09-24T21:48:19.644Z,0.60
2018-09-24T21:50:53.038Z,1.27
2018-09-24T21:53:26.342Z,0.83
2018-09-24T21:55:59.654Z,1.03
2018-09-24T21:58:32.928Z,1.03
2018-09-24T22:01:06.251Z,0.80
2018-09-24T22:03:39.638Z,1.03
2018-09-24T22:06:12.963Z,0.80
2018-09-24T22:08:46.398Z,0.80
2018-09-24T22:11:19.658Z,1.10
2018-09-24T22:13:52.954Z,0.80
2018-09-24T22:16:33.031Z,1.10
2018-09-24T22:19:06.439Z,0.70
2018-09-24T22:21:39.882Z,1.10
2018-09-24T22:24:13.190Z,1.30
2018-09-24T22:26:46.519Z,0.80
2018-09-24T22:29:19.806Z,0.80
2018-09-24T22:31:53.182Z,0.77
2018-09-24T22:34:26.363Z,0.77
2018-09-24T22:36:59.790Z,0.70
2018-09-24T22:39:33.095Z,0.90
2018-09-24T22:42:06.351Z,1.00
2018-09-24T22:44:39.746Z,0.70
2018-09-24T22:47:12.935Z,0.97
2018-09-24T22:49:46.252Z,0.90
2018-09-24T22:52:19.516Z,1.20
2018-09-24T22:54:52.939Z,0.97
2018-09-24T22:57:26.674Z,0.90
2018-09-24T23:00:00.147Z,0.90
2018-09-24T23:02:33.417Z,0.70
2018-09-24T23:05:06.707Z,0.80
2018-09-24T23:07:40.167Z,0.90
2018-09-24T23:10:13.467Z,0.90
2018-09-24T23:12:46.866Z,1.23
2018-09-24T23:15:20.251Z,1.17
2018-09-24T23:17:53.650Z,0.90
2018-09-24T23:20:26.941Z,1.00
2018-09-24T23:23:00.355Z,1.00
2018-09-24T23:25:33.652Z,1.17
2018-09-24T23:28:07.761Z,0.90
2018-09-24T23:30:41.166Z,0.90
2018-09-24T23:33:14.448Z,1.07
2018-09-24T23:35:47.847Z,0.83
2018-09-24T23:38:21.115Z,0.60
2018-09-24T23:40:54.459Z,1.50
2018-09-24T23:43:27.732Z,1.10
2018-09-24T23:46:01.014Z,0.87
2018-09-24T23:48:34.299Z,0.73
2018-09-24T23:51:07.575Z,0.90
2018-09-24T23:53:40.854Z,0.87
2018-09-24T23:56:14.171Z,0.80
2018-09-24T23:58:47.887Z,1.03
